Time,TemperatureF,DewpointF,PressureIn,WindDirection,WindDirectionDegrees,WindSpeedMPH,WindSpeedGustMPH,Humidity,HourlyPrecipIn,Conditions,Clouds,dailyrainin,SoftwareType,DateUTC
2013-08-19 00:11:00,66.0,62.0,30.05,SSW,196,0.0,0.0,86,0.00,,,0.00,,2013-08-19 05:11:00,
2013-08-19 00:22:00,66.0,62.0,30.05,SSW,196,0.0,0.0,87,0.00,,,0.00,,2013-08-19 05:22:00,
2013-08-19 00:52:00,65.0,61.0,30.04,SSW,196,0.0,0.0,88,0.00,,,0.00,,2013-08-19 05:52:00,
2013-08-19 01:11:00,65.0,62.0,30.04,SSW,196,0.0,0.0,89,0.00,,,0.00,,2013-08-19 06:11:00,
2013-08-19 01:21:00,65.0,62.0,30.03,SSW,196,0.0,0.0,89,0.00,,,0.00,,2013-08-19 06:21:00,
2013-08-19 01:52:00,65.0,62.0,30.03,SSW,196,0.0,0.0,89,0.00,,,0.00,,2013-08-19 06:52:00,
2013-08-19 02:11:00,64.0,61.0,30.03,SSW,196,0.0,0.0,89,0.00,,,0.00,,2013-08-19 07:11:00,
2013-08-19 02:21:00,64.0,61.0,30.03,SSW,196,0.0,0.0,89,0.00,,,0.00,,2013-08-19 07:21:00,
2013-08-19 02:52:00,63.0,60.0,30.03,SSW,196,0.0,0.0,90,0.00,,,0.00,,2013-08-19 07:52:00,
2013-08-19 03:11:00,63.0,60.0,30.03,SSW,196,0.0,0.0,90,0.00,,,0.00,,2013-08-19 08:11:00,
2013-08-19 03:21:00,63.0,60.0,30.03,SSW,196,0.0,0.0,90,0.00,,,0.00,,2013-08-19 08:21:00,
2013-08-19 03:52:00,63.0,60.0,30.03,SSW,196,0.0,0.0,90,0.00,,,0.00,,2013-08-19 08:52:00,
2013-08-19 04:11:00,63.0,60.0,30.03,SSW,196,0.0,0.0,91,0.00,,,0.00,,2013-08-19 09:11:00,
2013-08-19 04:22:00,62.0,59.0,30.03,SSW,196,0.0,0.0,91,0.00,,,0.00,,2013-08-19 09:22:00,
2013-08-19 04:53:00,62.0,59.0,30.04,SSW,196,0.0,0.0,91,0.00,,,0.00,,2013-08-19 09:53:00,
2013-08-19 05:23:00,62.0,59.0,30.04,SSW,196,0.0,0.0,91,0.00,,,0.00,,2013-08-19 10:23:00,
2013-08-19 05:52:00,62.0,60.0,30.05,SSW,196,0.0,0.0,92,0.00,,,0.00,,2013-08-19 10:52:00,
2013-08-19 06:22:00,62.0,60.0,30.05,SSW,196,0.0,0.0,92,0.00,,,0.00,,2013-08-19 11:22:00,
2013-08-19 06:52:00,61.0,59.0,30.05,SSW,196,0.0,0.0,92,0.00,,,0.00,,2013-08-19 11:52:00,
2013-08-19 07:11:00,62.0,60.0,30.05,SSW,196,0.0,0.0,92,0.00,,,0.00,,2013-08-19 12:11:00,
2013-08-19 07:21:00,62.0,60.0,30.06,SSW,196,0.0,0.0,93,0.00,,,0.00,,2013-08-19 12:21:00,
2013-08-19 07:52:00,63.0,61.0,30.07,SSW,196,0.0,0.0,93,0.00,,,0.00,,2013-08-19 12:52:00,
2013-08-19 08:22:00,65.0,63.0,30.07,SSW,196,0.0,0.0,93,0.00,,,0.00,,2013-08-19 13:22:00,
2013-08-19 08:42:00,66.0,64.0,30.07,SSW,196,0.0,0.0,93,0.00,,,0.00,,2013-08-19 13:42:00,
2013-08-19 08:52:00,68.0,66.0,30.07,SSW,196,0.0,0.0,92,0.00,,,0.00,,2013-08-19 13:52:00,
2013-08-19 09:21:00,71.0,66.0,30.07,WSW,257,0.0,3.0,84,0.00,,,0.00,,2013-08-19 14:21:00,
2013-08-19 09:52:00,74.0,67.0,30.06,SE,126,0.0,5.0,79,0.00,,,0.00,,2013-08-19 14:52:00,
2013-08-19 10:11:00,76.0,67.0,30.06,SE,126,0.0,1.0,75,0.00,,,0.00,,2013-08-19 15:11:00,
2013-08-19 10:22:00,78.0,67.0,30.06,SE,126,0.0,1.0,68,0.00,,,0.00,,2013-08-19 15:22:00,
2013-08-19 10:54:00,80.0,66.0,30.06,South,178,2.0,5.0,63,0.00,,,0.00,,2013-08-19 15:54:00,
2013-08-19 11:13:00,80.0,66.0,30.06,SSE,149,0.0,3.0,63,0.00,,,0.00,,2013-08-19 16:13:00,
2013-08-19 11:23:00,81.0,66.0,30.06,West,279,0.0,5.0,61,0.00,,,0.00,,2013-08-19 16:23:00,
2013-08-19 12:30:00,82.0,-99.9,30.04,ESE,111,2.0,6.0,55,0.00,,,0.00,,2013-08-19 17:30:00,
2013-08-19 12:57:00,82.0,63.0,30.04,West,276,3.0,8.0,52,0.00,,,0.00,,2013-08-19 17:57:00,
2013-08-19 13:19:00,83.0,64.0,30.03,SSE,156,0.0,6.0,53,0.00,,,0.00,,2013-08-19 18:19:00,
2013-08-19 13:28:00,83.0,63.0,30.03,SSE,150,4.0,6.0,51,0.00,,,0.00,,2013-08-19 18:28:00,
2013-08-19 13:50:00,-999.0,-99.9,30.03,South,170,0.0,6.0,52,0.00,,,0.00,,2013-08-19 18:50:00,
2013-08-19 14:00:00,-999.0,-99.9,30.03,SE,142,3.0,6.0,52,0.00,,,0.00,,2013-08-19 19:00:00,
2013-08-19 14:16:00,83.0,64.0,30.03,SSE,166,3.0,8.0,53,0.00,,,0.00,,2013-08-19 19:16:00,
2013-08-19 14:30:00,-999.0,-99.9,30.03,WSW,237,2.0,8.0,53,0.00,,,0.00,,2013-08-19 19:30:00,
2013-08-19 14:50:00,83.0,65.0,30.03,South,181,0.0,1.0,55,0.00,,,0.00,,2013-08-19 19:50:00,
2013-08-19 14:59:00,84.0,65.0,30.02,NE,37,1.0,6.0,53,0.00,,,0.00,,2013-08-19 19:59:00,
2013-08-19 15:20:00,84.0,64.0,30.01,SSE,149,2.0,5.0,51,0.00,,,0.00,,2013-08-19 20:20:00,
2013-08-19 15:30:00,83.0,64.0,30.01,East,93,3.0,8.0,52,0.00,,,0.00,,2013-08-19 20:30:00,
2013-08-19 16:00:00,-999.0,-99.9,30.01,NW,320,1.0,6.0,-999,-99.99,,,-99.99,,2013-08-19 21:00:00,
2013-08-19 16:16:00,84.0,63.0,30.01,SSE,167,1.0,5.0,50,0.00,,,0.00,,2013-08-19 21:16:00,
2013-08-19 16:25:00,83.0,65.0,30.00,East,100,0.0,3.0,55,0.00,,,0.00,,2013-08-19 21:25:00,
2013-08-19 16:55:00,83.0,64.0,30.00,ESE,123,2.0,5.0,53,0.00,,,0.00,,2013-08-19 21:55:00,
2013-08-19 17:25:00,84.0,64.0,30.00,WSW,240,1.0,3.0,51,0.00,,,0.00,,2013-08-19 22:25:00,
2013-08-19 17:55:00,83.0,65.0,30.00,SE,133,0.0,6.0,54,0.00,,,0.00,,2013-08-19 22:55:00,
2013-08-19 18:15:00,83.0,65.0,30.00,SSE,157,0.0,1.0,54,0.00,,,0.00,,2013-08-19 23:15:00,
2013-08-19 18:25:00,82.0,64.0,29.99,ENE,78,0.0,3.0,54,0.00,,,0.00,,2013-08-19 23:25:00,
2013-08-19 18:55:00,82.0,64.0,29.98,East,84,0.0,0.0,55,0.00,,,0.00,,2013-08-19 23:55:00,
2013-08-19 19:24:00,80.0,65.0,29.98,East,84,0.0,0.0,60,0.00,,,0.00,,2013-08-20 00:24:00,
2013-08-19 19:42:00,79.0,64.0,29.98,East,84,0.0,0.0,61,0.00,,,0.00,,2013-08-20 00:42:00,
2013-08-19 19:52:00,78.0,65.0,29.98,East,84,0.0,0.0,64,0.00,,,0.00,,2013-08-20 00:52:00,
2013-08-19 20:11:00,77.0,64.0,29.98,East,84,0.0,0.0,65,0.00,,,0.00,,2013-08-20 01:11:00,
2013-08-19 20:22:00,75.0,64.0,29.98,East,84,0.0,0.0,69,0.00,,,0.00,,2013-08-20 01:22:00,
2013-08-19 20:42:00,74.0,63.0,29.98,East,84,0.0,0.0,69,0.00,,,0.00,,2013-08-20 01:42:00,
2013-08-19 20:52:00,74.0,64.0,29.99,East,84,0.0,0.0,71,0.00,,,0.00,,2013-08-20 01:52:00,
2013-08-19 21:11:00,73.0,63.0,29.99,East,84,0.0,0.0,72,0.00,,,0.00,,2013-08-20 02:11:00,
2013-08-19 21:21:00,72.0,63.0,30.00,East,84,0.0,0.0,74,0.00,,,0.00,,2013-08-20 02:21:00,
2013-08-19 21:52:00,71.0,63.0,30.00,East,84,0.0,0.0,77,0.00,,,0.00,,2013-08-20 02:52:00,
2013-08-19 22:22:00,70.0,63.0,30.00,East,84,0.0,0.0,79,0.00,,,0.00,,2013-08-20 03:22:00,
2013-08-19 22:43:00,70.0,64.0,30.00,East,84,0.0,0.0,80,0.00,,,0.00,,2013-08-20 03:43:00,
2013-08-19 22:54:00,69.0,63.0,30.01,East,84,0.0,0.0,82,0.00,,,0.00,,2013-08-20 03:54:00,
2013-08-19 23:13:00,69.0,63.0,30.01,East,84,0.0,0.0,82,0.00,,,0.00,,2013-08-20 04:13:00,
2013-08-19 23:23:00,68.0,63.0,30.01,East,84,0.0,0.0,83,0.00,,,0.00,,2013-08-20 04:23:00,
2013-08-19 23:53:00,68.0,63.0,30.01,East,84,0.0,0.0,85,0.00,,,0.00,,2013-08-20 04:53:00,